createdAt,value
2018-05-29T00:00:12.192Z,17.78
2018-05-29T00:02:40.951Z,17.76
2018-05-29T00:05:09.374Z,17.80
2018-05-29T00:07:37.839Z,17.75
2018-05-29T00:10:06.384Z,17.77
2018-05-29T00:12:34.841Z,17.76
2018-05-29T00:15:03.240Z,17.77
2018-05-29T00:17:32.068Z,17.70
2018-05-29T00:20:00.482Z,17.68
2018-05-29T00:22:28.882Z,17.40
2018-05-29T00:24:57.618Z,17.41
2018-05-29T00:27:26.157Z,17.35
2018-05-29T00:29:54.592Z,17.22
2018-05-29T00:32:23.308Z,16.99
2018-05-29T00:34:51.728Z,16.74
2018-05-29T00:37:20.243Z,16.46
2018-05-29T00:39:48.894Z,16.31
2018-05-29T00:42:17.324Z,15.98
2018-05-29T00:44:45.740Z,15.88
2018-05-29T00:47:14.587Z,15.79
2018-05-29T00:49:42.986Z,15.79
2018-05-29T00:52:11.396Z,15.73
2018-05-29T00:54:40.224Z,15.56
2018-05-29T00:57:08.667Z,15.55
2018-05-29T00:59:37.107Z,15.30
2018-05-29T01:02:05.823Z,15.16
2018-05-29T01:04:34.259Z,15.11
2018-05-29T01:07:02.687Z,15.08
2018-05-29T01:09:31.343Z,15.21
2018-05-29T01:11:59.749Z,15.03
2018-05-29T01:14:28.175Z,15.02
2018-05-29T01:17:01.675Z,15.18
2018-05-29T01:19:30.126Z,15.25
2018-05-29T01:21:58.503Z,15.00
2018-05-29T01:24:27.357Z,14.81
2018-05-29T01:26:55.805Z,14.77
2018-05-29T01:29:24.213Z,14.87
2018-05-29T01:31:52.870Z,14.83
2018-05-29T01:34:21.268Z,14.83
2018-05-29T01:36:49.682Z,14.81
2018-05-29T01:39:18.540Z,14.79
2018-05-29T01:41:46.963Z,14.60
2018-05-29T01:44:15.354Z,14.59
2018-05-29T01:46:43.820Z,14.44
2018-05-29T01:49:12.266Z,14.33
2018-05-29T01:51:40.715Z,14.33
2018-05-29T01:54:09.420Z,14.45
2018-05-29T01:56:37.831Z,14.26
2018-05-29T01:59:06.228Z,14.12
2018-05-29T02:01:34.971Z,14.17
2018-05-29T02:04:03.635Z,14.13
2018-05-29T02:06:32.067Z,14.12
2018-05-29T02:09:00.820Z,14.07
2018-05-29T02:11:29.246Z,13.98
2018-05-29T02:13:57.635Z,14.18
2018-05-29T02:16:26.228Z,13.97
2018-05-29T02:18:54.632Z,14.21
2018-05-29T02:21:40.695Z,14.38
2018-05-29T02:24:43.375Z,14.07
2018-05-29T02:27:17.647Z,14.01
2018-05-29T02:29:46.083Z,14.00
2018-05-29T02:32:14.494Z,14.02
2018-05-29T02:34:43.040Z,13.33
2018-05-29T02:37:11.455Z,13.56
2018-05-29T02:39:39.870Z,13.58
2018-05-29T02:42:08.355Z,13.47
2018-05-29T02:44:36.757Z,13.64
2018-05-29T02:47:05.389Z,13.26
2018-05-29T02:49:33.925Z,12.95
2018-05-29T02:52:02.425Z,12.90
2018-05-29T02:54:30.838Z,13.17
2018-05-29T02:56:59.403Z,12.75
2018-05-29T02:59:27.890Z,12.66
2018-05-29T03:01:56.385Z,12.62
2018-05-29T03:04:24.868Z,12.61
2018-05-29T03:06:53.312Z,12.61
2018-05-29T03:09:21.715Z,13.05
2018-05-29T03:11:50.194Z,13.08
2018-05-29T03:14:18.755Z,13.08
2018-05-29T03:16:47.242Z,13.22
2018-05-29T03:19:15.730Z,13.03
2018-05-29T03:21:44.218Z,13.21
2018-05-29T03:24:12.622Z,12.99
2018-05-29T03:26:41.302Z,13.04
2018-05-29T03:29:09.735Z,13.08
2018-05-29T03:31:38.266Z,13.20
2018-05-29T03:34:06.726Z,13.30
2018-05-29T03:36:35.211Z,13.75
2018-05-29T03:39:03.699Z,13.54
2018-05-29T03:41:32.193Z,13.77
2018-05-29T03:44:00.631Z,14.09
2018-05-29T03:46:29.185Z,14.24
2018-05-29T03:48:57.694Z,14.03
2018-05-29T03:51:26.173Z,14.29
2018-05-29T03:53:54.618Z,14.14
2018-05-29T03:56:23.052Z,14.09
2018-05-29T03:58:51.468Z,14.55
2018-05-29T04:01:19.927Z,14.88
2018-05-29T04:03:48.410Z,14.98
2018-05-29T04:06:16.802Z,15.23
2018-05-29T04:08:45.220Z,15.28
2018-05-29T04:11:13.707Z,15.24
2018-05-29T04:13:42.118Z,15.60
2018-05-29T04:16:10.523Z,15.69
2018-05-29T04:18:39.120Z,15.85
2018-05-29T04:21:07.518Z,15.89
2018-05-29T04:23:35.978Z,15.82
2018-05-29T04:26:04.384Z,16.19
2018-05-29T04:28:32.940Z,16.11
2018-05-29T04:31:01.399Z,16.22
2018-05-29T04:33:29.829Z,16.17
2018-05-29T04:35:58.276Z,16.11
2018-05-29T04:38:26.696Z,16.35
2018-05-29T04:40:55.099Z,16.30
2018-05-29T04:43:23.802Z,16.35
2018-05-29T04:45:52.355Z,16.38
2018-05-29T04:48:20.885Z,16.75
2018-05-29T04:50:49.340Z,16.80
2018-05-29T04:53:17.756Z,16.98
2018-05-29T04:55:46.226Z,16.99
2018-05-29T04:58:14.697Z,16.79
2018-05-29T05:00:43.251Z,16.91
2018-05-29T05:03:11.679Z,17.16
2018-05-29T05:05:40.153Z,17.27
2018-05-29T05:08:08.615Z,17.49
2018-05-29T05:10:37.027Z,17.36
2018-05-29T05:13:05.546Z,17.36
2018-05-29T05:15:33.990Z,17.36
2018-05-29T05:18:02.453Z,17.61
2018-05-29T05:20:30.927Z,17.86
2018-05-29T05:22:59.384Z,17.82
2018-05-29T05:25:27.818Z,18.32
2018-05-29T05:27:56.375Z,18.63
2018-05-29T05:30:24.815Z,18.46
2018-05-29T05:32:53.232Z,18.62
2018-05-29T05:35:21.746Z,18.86
2018-05-29T05:37:50.209Z,19.06
2018-05-29T05:40:18.790Z,19.34
2018-05-29T05:42:47.347Z,19.36
2018-05-29T05:45:15.754Z,19.38
2018-05-29T05:47:44.224Z,19.60
2018-05-29T05:50:12.662Z,19.84
2018-05-29T05:52:41.160Z,20.04
2018-05-29T05:55:09.583Z,20.16
2018-05-29T05:57:37.981Z,19.93
2018-05-29T06:00:06.485Z,20.04
2018-05-29T06:02:34.905Z,19.95
2018-05-29T06:05:03.346Z,20.38
2018-05-29T06:07:31.816Z,20.16
2018-05-29T06:10:00.315Z,20.52
2018-05-29T06:12:28.786Z,20.69
2018-05-29T06:14:57.214Z,20.96
2018-05-29T06:17:25.804Z,21.12
2018-05-29T06:19:54.306Z,20.92
2018-05-29T06:22:22.698Z,21.02
2018-05-29T06:24:51.147Z,20.95
2018-05-29T06:27:19.612Z,21.05
2018-05-29T06:29:48.076Z,21.05
2018-05-29T06:32:16.452Z,21.30
2018-05-29T06:34:44.920Z,21.30
2018-05-29T06:37:13.461Z,21.31
2018-05-29T06:39:41.847Z,21.39
2018-05-29T06:42:10.339Z,21.53
2018-05-29T06:44:38.843Z,21.74
2018-05-29T06:47:07.256Z,21.79
2018-05-29T06:49:35.680Z,21.42
2018-05-29T06:52:04.196Z,21.66
2018-05-29T06:54:32.604Z,21.49
2018-05-29T06:57:01.262Z,21.70
2018-05-29T06:59:29.793Z,21.61
2018-05-29T07:01:58.206Z,21.55
2018-05-29T07:04:26.609Z,21.71
2018-05-29T07:06:55.071Z,21.56
2018-05-29T07:09:29.461Z,21.55
2018-05-29T07:11:57.939Z,21.72
2018-05-29T07:14:26.381Z,21.74
2018-05-29T07:16:54.834Z,21.63
2018-05-29T07:19:23.287Z,21.81
2018-05-29T07:21:51.802Z,22.13
2018-05-29T07:24:20.198Z,22.37
2018-05-29T07:26:48.666Z,22.62
2018-05-29T07:29:17.086Z,22.72
2018-05-29T07:31:45.605Z,22.67
2018-05-29T07:34:14.074Z,22.72
2018-05-29T07:36:42.464Z,22.85
2018-05-29T07:39:10.901Z,22.88
2018-05-29T07:41:39.334Z,23.00
2018-05-29T07:44:07.831Z,22.77
2018-05-29T07:46:36.282Z,22.65
2018-05-29T07:49:04.744Z,23.20
2018-05-29T07:51:33.188Z,23.12
2018-05-29T07:54:01.617Z,22.78
2018-05-29T07:56:30.207Z,23.15
2018-05-29T07:58:59.006Z,23.41
2018-05-29T08:01:27.461Z,23.25
2018-05-29T08:03:55.860Z,23.26
2018-05-29T08:06:24.393Z,23.23
2018-05-29T08:08:52.839Z,23.32
2018-05-29T08:11:21.275Z,23.50
2018-05-29T08:13:49.687Z,23.57
2018-05-29T08:16:18.135Z,23.66
2018-05-29T08:18:46.535Z,23.88
2018-05-29T08:21:14.995Z,24.06
2018-05-29T08:23:43.386Z,24.25
2018-05-29T08:26:11.835Z,23.95
2018-05-29T08:28:40.301Z,23.93
2018-05-29T08:31:08.887Z,24.39
2018-05-29T08:33:37.496Z,24.10
2018-05-29T08:36:05.954Z,23.99
2018-05-29T08:38:34.367Z,24.22
2018-05-29T08:41:02.787Z,24.19
2018-05-29T08:43:31.270Z,24.73
2018-05-29T08:45:59.729Z,24.96
2018-05-29T08:48:28.202Z,25.03
2018-05-29T08:50:56.844Z,25.18
2018-05-29T08:53:25.301Z,25.26
2018-05-29T08:55:53.797Z,24.36
2018-05-29T08:58:22.194Z,24.34
2018-05-29T09:00:50.795Z,24.56
2018-05-29T09:03:19.293Z,24.78
2018-05-29T09:05:47.747Z,24.84
2018-05-29T09:08:16.343Z,24.69
2018-05-29T09:10:44.809Z,24.50
2018-05-29T09:13:13.296Z,24.83
2018-05-29T09:15:41.842Z,24.84
2018-05-29T09:18:10.272Z,25.24
2018-05-29T09:20:38.698Z,25.44
2018-05-29T09:23:07.168Z,25.89
2018-05-29T09:25:35.671Z,25.68
2018-05-29T09:28:04.111Z,25.88
2018-05-29T09:30:32.585Z,25.79
2018-05-29T09:33:00.992Z,25.78
2018-05-29T09:35:29.563Z,25.51
2018-05-29T09:37:58.438Z,24.96
2018-05-29T09:40:27.124Z,24.66
2018-05-29T09:42:55.580Z,25.10
2018-05-29T09:45:24.017Z,24.86
2018-05-29T09:47:52.509Z,25.18
2018-05-29T09:50:20.928Z,24.87
2018-05-29T09:52:49.422Z,25.03
2018-05-29T09:55:17.840Z,25.05
2018-05-29T09:57:46.351Z,25.05
2018-05-29T10:00:14.796Z,25.33
2018-05-29T10:02:43.264Z,25.51
2018-05-29T10:05:11.676Z,25.99
2018-05-29T10:07:40.158Z,26.13
2018-05-29T10:10:08.631Z,25.83
2018-05-29T10:12:37.081Z,25.27
2018-05-29T10:15:05.584Z,25.68
2018-05-29T10:17:34.013Z,26.20
2018-05-29T10:20:02.580Z,26.61
2018-05-29T10:22:31.023Z,26.65
2018-05-29T10:24:59.476Z,27.04
2018-05-29T10:27:27.875Z,26.20
2018-05-29T10:29:56.267Z,25.96
2018-05-29T10:32:24.721Z,25.99
2018-05-29T10:34:53.299Z,26.55
2018-05-29T10:37:21.792Z,26.62
2018-05-29T10:39:50.248Z,26.75
2018-05-29T10:42:18.712Z,27.34
2018-05-29T10:44:47.175Z,27.67
2018-05-29T10:47:15.705Z,27.46
2018-05-29T10:49:44.156Z,28.70
2018-05-29T10:52:12.619Z,29.43
2018-05-29T10:54:41.088Z,29.79
2018-05-29T10:57:09.507Z,30.54
2018-05-29T10:59:37.964Z,30.28
2018-05-29T11:02:06.434Z,29.40
2018-05-29T11:04:34.888Z,28.66
2018-05-29T11:07:03.346Z,29.33
2018-05-29T11:09:31.826Z,27.87
2018-05-29T11:12:00.257Z,28.00
2018-05-29T11:14:28.728Z,26.43
2018-05-29T11:16:57.149Z,26.16
2018-05-29T11:19:25.644Z,25.68
2018-05-29T11:21:54.199Z,26.51
2018-05-29T11:24:22.631Z,26.72
2018-05-29T11:26:51.102Z,26.38
2018-05-29T11:29:19.612Z,27.14
2018-05-29T11:31:48.028Z,27.49
2018-05-29T11:34:16.470Z,27.40
2018-05-29T11:36:44.934Z,26.90
2018-05-29T11:39:13.437Z,28.49
2018-05-29T11:41:41.901Z,30.17
2018-05-29T11:44:10.320Z,30.45
2018-05-29T11:46:38.805Z,29.35
2018-05-29T11:49:07.246Z,30.41
2018-05-29T11:51:35.704Z,28.85
2018-05-29T11:54:04.132Z,27.55
2018-05-29T11:56:32.553Z,27.87
2018-05-29T11:59:00.984Z,27.32
2018-05-29T12:01:29.470Z,28.41
2018-05-29T12:03:57.975Z,30.24
2018-05-29T12:06:26.360Z,30.78
2018-05-29T12:08:54.970Z,29.89
2018-05-29T12:11:23.367Z,29.11
2018-05-29T12:13:51.848Z,28.48
2018-05-29T12:16:20.227Z,28.45
2018-05-29T12:18:48.723Z,30.14
2018-05-29T12:21:17.224Z,31.93
2018-05-29T12:23:45.627Z,32.21
2018-05-29T12:26:14.031Z,31.46
2018-05-29T12:28:42.524Z,31.74
2018-05-29T12:31:10.929Z,31.98
2018-05-29T12:33:39.424Z,32.99
2018-05-29T12:36:07.877Z,33.12
2018-05-29T12:38:36.324Z,32.56
2018-05-29T12:41:04.836Z,32.10
2018-05-29T12:43:33.227Z,32.28
2018-05-29T12:46:01.761Z,33.02
2018-05-29T12:48:30.197Z,33.28
2018-05-29T12:50:58.601Z,33.14
2018-05-29T12:53:27.068Z,32.61
2018-05-29T12:55:55.600Z,30.92
2018-05-29T12:58:24.186Z,30.13
2018-05-29T13:00:52.757Z,31.92
2018-05-29T13:03:21.238Z,32.84
2018-05-29T13:05:49.701Z,34.27
2018-05-29T13:08:18.157Z,33.64
2018-05-29T13:10:46.644Z,32.20
2018-05-29T13:13:15.075Z,29.77
2018-05-29T13:15:43.504Z,28.85
2018-05-29T13:18:12.024Z,30.40
2018-05-29T13:20:40.465Z,31.15
2018-05-29T13:23:09.023Z,30.30
2018-05-29T13:25:37.515Z,32.35
2018-05-29T13:28:06.105Z,33.50
2018-05-29T13:30:34.805Z,34.97
2018-05-29T13:33:03.259Z,35.38
2018-05-29T13:35:31.731Z,35.69
2018-05-29T13:38:00.492Z,35.74
2018-05-29T13:40:28.923Z,34.20
2018-05-29T13:42:57.314Z,34.73
2018-05-29T13:45:25.967Z,33.90
2018-05-29T13:47:54.354Z,31.42
2018-05-29T13:50:22.757Z,30.18
2018-05-29T13:52:51.582Z,29.09
2018-05-29T13:55:20.025Z,28.92
2018-05-29T13:57:48.464Z,30.05
2018-05-29T14:00:17.275Z,31.92
2018-05-29T14:02:45.687Z,33.19
2018-05-29T14:05:14.165Z,31.85
2018-05-29T14:07:42.569Z,33.03
2018-05-29T14:10:10.974Z,32.74
2018-05-29T14:12:39.442Z,30.95
2018-05-29T14:15:07.840Z,30.08
2018-05-29T14:17:36.260Z,30.21
2018-05-29T14:20:04.739Z,28.15
2018-05-29T14:22:33.147Z,28.44
2018-05-29T14:25:01.690Z,30.64
2018-05-29T14:27:30.188Z,31.10
2018-05-29T14:29:58.611Z,30.73
2018-05-29T14:32:27.011Z,30.42
2018-05-29T14:34:55.439Z,30.26
2018-05-29T14:37:23.809Z,32.34
2018-05-29T14:39:52.207Z,34.51
2018-05-29T14:42:21.118Z,35.74
2018-05-29T14:44:49.517Z,36.51
2018-05-29T14:47:18.302Z,34.39
2018-05-29T14:49:47.079Z,35.13
2018-05-29T14:52:15.523Z,30.42
2018-05-29T14:54:44.066Z,28.85
2018-05-29T14:57:12.730Z,31.99
2018-05-29T14:59:41.135Z,33.06
2018-05-29T15:02:09.666Z,33.08
2018-05-29T15:04:38.273Z,32.67
2018-05-29T15:07:06.841Z,32.54
2018-05-29T15:09:35.247Z,31.67
2018-05-29T15:12:04.025Z,32.00
2018-05-29T15:14:32.604Z,32.32
2018-05-29T15:17:01.029Z,30.37
2018-05-29T15:19:29.750Z,30.69
2018-05-29T15:21:58.144Z,31.08
2018-05-29T15:24:26.528Z,30.59
2018-05-29T15:26:54.989Z,31.19
2018-05-29T15:29:23.402Z,31.46
2018-05-29T15:31:51.825Z,30.28
2018-05-29T15:34:20.520Z,30.56
2018-05-29T15:36:48.888Z,29.80
2018-05-29T15:39:17.291Z,29.50
2018-05-29T15:41:46.030Z,29.07
2018-05-29T15:44:14.436Z,30.60
2018-05-29T15:46:42.863Z,32.45
2018-05-29T15:49:11.740Z,31.73
2018-05-29T15:51:40.153Z,32.23
2018-05-29T15:54:08.526Z,31.84
2018-05-29T15:56:37.275Z,31.20
2018-05-29T15:59:05.679Z,31.66
2018-05-29T16:01:34.098Z,29.68
2018-05-29T16:04:02.538Z,30.20
2018-05-29T16:06:30.955Z,30.82
2018-05-29T16:08:59.391Z,31.33
2018-05-29T16:11:27.821Z,29.98
2018-05-29T16:13:56.222Z,29.15
2018-05-29T16:16:24.624Z,30.11
2018-05-29T16:18:53.231Z,31.02
2018-05-29T16:21:21.644Z,32.02
2018-05-29T16:23:50.063Z,30.43
2018-05-29T16:26:18.811Z,30.48
2018-05-29T16:28:47.180Z,30.23
2018-05-29T16:31:15.625Z,30.24
2018-05-29T16:33:44.350Z,30.46
2018-05-29T16:36:12.834Z,30.68
2018-05-29T16:38:41.496Z,29.72
2018-05-29T16:41:10.199Z,30.52
2018-05-29T16:43:44.119Z,30.16
2018-05-29T16:46:13.001Z,30.14
2018-05-29T16:48:41.392Z,29.87
2018-05-29T16:51:09.782Z,28.77
2018-05-29T16:53:38.507Z,28.21
2018-05-29T16:56:06.927Z,29.18
2018-05-29T16:58:35.321Z,28.45
2018-05-29T17:01:03.758Z,28.88
2018-05-29T17:03:32.163Z,28.25
2018-05-29T17:06:00.553Z,28.26
2018-05-29T17:08:29.352Z,28.76
2018-05-29T17:10:57.747Z,28.49
2018-05-29T17:13:26.152Z,28.26
2018-05-29T17:15:54.866Z,28.96
2018-05-29T17:18:23.272Z,29.08
2018-05-29T17:20:51.665Z,28.60
2018-05-29T17:23:20.099Z,28.01
2018-05-29T17:25:48.524Z,27.57
2018-05-29T17:28:16.927Z,26.85
2018-05-29T17:30:45.616Z,25.77
2018-05-29T17:33:14.011Z,25.22
2018-05-29T17:35:42.415Z,24.75
2018-05-29T17:38:11.127Z,24.67
2018-05-29T17:40:39.516Z,24.42
2018-05-29T17:43:07.933Z,24.13
2018-05-29T17:45:36.696Z,23.81
2018-05-29T17:48:05.090Z,23.18
2018-05-29T17:50:33.487Z,22.71
2018-05-29T17:53:02.223Z,22.53
2018-05-29T17:55:30.624Z,22.26
2018-05-29T17:57:59.042Z,22.25
2018-05-29T18:00:27.666Z,21.96
2018-05-29T18:02:56.055Z,21.72
2018-05-29T18:05:24.466Z,21.82
2018-05-29T18:07:53.158Z,21.78
2018-05-29T18:10:21.558Z,21.67
2018-05-29T18:12:50.032Z,21.56
2018-05-29T18:15:18.763Z,21.64
2018-05-29T18:17:47.162Z,21.41
2018-05-29T18:20:15.555Z,21.38
2018-05-29T18:22:44.325Z,21.19
2018-05-29T18:25:12.779Z,21.40
2018-05-29T18:27:41.170Z,21.40
2018-05-29T18:30:09.594Z,21.12
2018-05-29T18:32:38.085Z,20.99
2018-05-29T18:35:06.475Z,21.06
2018-05-29T18:37:35.088Z,21.16
2018-05-29T18:40:03.523Z,20.98
2018-05-29T18:42:31.920Z,20.82
2018-05-29T18:45:00.483Z,20.85
2018-05-29T18:47:28.883Z,20.93
2018-05-29T18:49:57.382Z,20.66
2018-05-29T18:52:25.732Z,20.67
2018-05-29T18:54:54.117Z,20.48
2018-05-29T18:57:22.488Z,20.43
2018-05-29T18:59:51.336Z,20.28
2018-05-29T19:02:19.719Z,20.20
2018-05-29T19:04:48.128Z,20.22
2018-05-29T19:07:16.899Z,20.18
2018-05-29T19:09:45.289Z,20.12
2018-05-29T19:12:13.707Z,20.00
2018-05-29T19:14:42.544Z,19.73
2018-05-29T19:17:11.033Z,19.87
2018-05-29T19:19:39.465Z,19.85
2018-05-29T19:22:08.203Z,19.85
2018-05-29T19:24:36.600Z,19.84
2018-05-29T19:27:04.992Z,19.54
2018-05-29T19:29:33.720Z,19.71
2018-05-29T19:32:02.123Z,19.64
2018-05-29T19:34:30.554Z,19.65
2018-05-29T19:36:58.983Z,19.68
2018-05-29T19:39:27.379Z,19.64
2018-05-29T19:41:55.760Z,19.48
2018-05-29T19:44:25.033Z,19.50
2018-05-29T19:46:53.427Z,19.44
2018-05-29T19:49:21.819Z,19.22
2018-05-29T19:51:50.271Z,19.21
2018-05-29T19:54:18.721Z,19.46
2018-05-29T19:56:47.115Z,19.18
2018-05-29T19:59:15.816Z,19.47
2018-05-29T20:01:44.198Z,19.39
2018-05-29T20:04:12.765Z,19.41
2018-05-29T20:06:41.186Z,19.38
2018-05-29T20:09:09.618Z,19.56
2018-05-29T20:11:38.035Z,19.47
2018-05-29T20:14:06.485Z,19.60
2018-05-29T20:16:34.945Z,19.67
2018-05-29T20:19:03.336Z,19.64
2018-05-29T20:21:31.821Z,19.54
2018-05-29T20:24:00.212Z,19.59
2018-05-29T20:26:28.640Z,19.48
2018-05-29T20:28:57.362Z,19.52
2018-05-29T20:31:25.770Z,19.41
2018-05-29T20:33:54.193Z,19.49
2018-05-29T20:36:23.176Z,19.47
2018-05-29T20:38:51.578Z,19.46
2018-05-29T20:41:19.978Z,19.43
2018-05-29T20:43:48.759Z,19.54
2018-05-29T20:46:17.122Z,19.67
2018-05-29T20:48:45.504Z,19.51
2018-05-29T20:51:14.076Z,19.50
2018-05-29T20:53:42.462Z,19.44
2018-05-29T20:56:10.844Z,19.36
2018-05-29T20:58:39.610Z,19.43
2018-05-29T21:01:08.050Z,19.09
2018-05-29T21:03:36.452Z,19.45
2018-05-29T21:06:05.260Z,19.38
2018-05-29T21:08:33.637Z,19.41
2018-05-29T21:11:02.043Z,19.39
2018-05-29T21:13:30.708Z,19.33
2018-05-29T21:15:59.226Z,19.37
2018-05-29T21:18:27.615Z,19.26
2018-05-29T21:20:56.253Z,19.33
2018-05-29T21:23:24.640Z,19.10
2018-05-29T21:25:53.031Z,19.11
2018-05-29T21:28:21.488Z,18.97
2018-05-29T21:30:49.884Z,19.14
2018-05-29T21:33:18.317Z,19.09
2018-05-29T21:35:46.943Z,18.91
2018-05-29T21:38:15.323Z,19.00
2018-05-29T21:40:43.692Z,18.99
2018-05-29T21:43:12.287Z,18.81
2018-05-29T21:45:40.675Z,18.98
2018-05-29T21:48:09.063Z,18.81
2018-05-29T21:50:37.832Z,18.80
2018-05-29T21:53:06.212Z,18.74
2018-05-29T21:55:34.598Z,18.67
2018-05-29T21:58:03.404Z,18.84
2018-05-29T22:00:31.791Z,18.75
2018-05-29T22:03:00.214Z,18.63
2018-05-29T22:05:28.659Z,18.52
2018-05-29T22:07:57.059Z,18.69
2018-05-29T22:10:25.455Z,18.51
2018-05-29T22:12:53.931Z,18.41
2018-05-29T22:15:22.592Z,18.31
2018-05-29T22:17:50.990Z,18.23
2018-05-29T22:20:19.824Z,18.31
2018-05-29T22:22:48.292Z,18.23
2018-05-29T22:25:16.721Z,18.17
2018-05-29T22:27:45.150Z,18.14
2018-05-29T22:30:13.612Z,17.97
2018-05-29T22:32:41.985Z,17.93
2018-05-29T22:35:10.741Z,17.97
2018-05-29T22:37:39.131Z,18.03
2018-05-29T22:40:07.519Z,17.80
2018-05-29T22:42:36.264Z,17.94
2018-05-29T22:45:04.655Z,17.93
2018-05-29T22:47:33.079Z,17.77
2018-05-29T22:50:01.727Z,17.80
2018-05-29T22:52:30.137Z,17.65
2018-05-29T22:54:58.559Z,17.56
2018-05-29T22:57:27.255Z,17.46
2018-05-29T22:59:55.635Z,17.41
2018-05-29T23:02:24.032Z,17.36
2018-05-29T23:04:52.807Z,17.28
2018-05-29T23:13:51.294Z,16.38
2018-05-29T23:16:19.707Z,16.46
2018-05-29T23:18:48.134Z,16.46
2018-05-29T23:21:16.778Z,16.36
2018-05-29T23:23:45.191Z,16.34
2018-05-29T23:26:13.599Z,16.22
2018-05-29T23:28:42.441Z,16.10
2018-05-29T23:31:10.867Z,16.05
2018-05-29T23:33:39.269Z,16.16
2018-05-29T23:36:07.723Z,16.01
2018-05-29T23:38:36.157Z,15.90
2018-05-29T23:41:04.556Z,16.03
2018-05-29T23:43:33.338Z,15.91
2018-05-29T23:46:01.749Z,15.96
2018-05-29T23:48:30.154Z,15.71
2018-05-29T23:50:58.979Z,15.87
2018-05-29T23:53:27.551Z,15.58
2018-05-29T23:55:55.960Z,15.42
2018-05-29T23:58:24.703Z,15.39
